sensor_id;sensor_type;location;lat;lon;timestamp;temperature;humidity
7502;DHT22;3792;47.740;7.606;2023-07-31T00:02:03;16.90;99.90
7502;DHT22;3792;47.740;7.606;2023-07-31T00:04:30;16.90;99.90
7502;DHT22;3792;47.740;7.606;2023-07-31T00:06:57;16.90;99.90
7502;DHT22;3792;47.740;7.606;2023-07-31T00:09:25;16.90;99.90
7502;DHT22;3792;47.740;7.606;2023-07-31T00:11:52;16.80;99.90
7502;DHT22;3792;47.740;7.606;2023-07-31T00:14:20;16.70;99.90
7502;DHT22;3792;47.740;7.606;2023-07-31T00:16:47;16.60;99.90
7502;DHT22;3792;47.740;7.606;2023-07-31T00:19:14;16.60;99.90
7502;DHT22;3792;47.740;7.606;2023-07-31T00:21:41;16.60;99.90
7502;DHT22;3792;47.740;7.606;2023-07-31T00:24:08;16.70;99.90
7502;DHT22;3792;47.740;7.606;2023-07-31T00:26:35;16.70;99.90
7502;DHT22;3792;47.740;7.606;2023-07-31T00:29:02;16.60;99.90
7502;DHT22;3792;47.740;7.606;2023-07-31T00:31:31;16.50;99.90
7502;DHT22;3792;47.740;7.606;2023-07-31T00:33:58;16.50;99.90
7502;DHT22;3792;47.740;7.606;2023-07-31T00:36:25;16.40;99.90
7502;DHT22;3792;47.740;7.606;2023-07-31T00:38:52;16.30;99.90
7502;DHT22;3792;47.740;7.606;2023-07-31T00:41:19;16.20;99.90
7502;DHT22;3792;47.740;7.606;2023-07-31T00:43:46;16.20;99.90
7502;DHT22;3792;47.740;7.606;2023-07-31T00:46:13;16.20;99.90
7502;DHT22;3792;47.740;7.606;2023-07-31T00:48:41;16.20;99.90
7502;DHT22;3792;47.740;7.606;2023-07-31T00:51:09;16.20;99.90
7502;DHT22;3792;47.740;7.606;2023-07-31T00:53:37;16.30;99.90
7502;DHT22;3792;47.740;7.606;2023-07-31T00:56:04;16.20;99.90
7502;DHT22;3792;47.740;7.606;2023-07-31T00:58:32;16.20;99.90
7502;DHT22;3792;47.740;7.606;2023-07-31T01:00:59;16.20;99.90
7502;DHT22;3792;47.740;7.606;2023-07-31T01:03:26;16.10;99.90
7502;DHT22;3792;47.740;7.606;2023-07-31T01:06:04;16.00;99.90
7502;DHT22;3792;47.740;7.606;2023-07-31T01:08:37;16.10;99.90
7502;DHT22;3792;47.740;7.606;2023-07-31T01:11:15;16.10;99.90
7502;DHT22;3792;47.740;7.606;2023-07-31T01:13:43;16.10;99.90
7502;DHT22;3792;47.740;7.606;2023-07-31T01:16:11;16.10;99.90
7502;DHT22;3792;47.740;7.606;2023-07-31T01:18:38;16.10;99.90
7502;DHT22;3792;47.740;7.606;2023-07-31T01:21:22;16.00;99.90
7502;DHT22;3792;47.740;7.606;2023-07-31T01:24:15;16.00;99.90
7502;DHT22;3792;47.740;7.606;2023-07-31T01:26:49;15.90;99.90
7502;DHT22;3792;47.740;7.606;2023-07-31T01:29:25;16.00;99.90
7502;DHT22;3792;47.740;7.606;2023-07-31T01:31:57;15.90;99.90
7502;DHT22;3792;47.740;7.606;2023-07-31T01:34:26;15.90;99.90
7502;DHT22;3792;47.740;7.606;2023-07-31T01:36:56;15.90;99.90
7502;DHT22;3792;47.740;7.606;2023-07-31T01:39:23;15.90;99.90
7502;DHT22;3792;47.740;7.606;2023-07-31T01:41:52;15.90;99.90
7502;DHT22;3792;47.740;7.606;2023-07-31T01:44:19;15.80;99.90
7502;DHT22;3792;47.740;7.606;2023-07-31T01:46:46;15.70;99.90
7502;DHT22;3792;47.740;7.606;2023-07-31T01:49:13;15.60;99.90
7502;DHT22;3792;47.740;7.606;2023-07-31T01:51:40;15.70;99.90
7502;DHT22;3792;47.740;7.606;2023-07-31T01:54:07;15.70;99.90
7502;DHT22;3792;47.740;7.606;2023-07-31T01:56:34;15.70;99.90
7502;DHT22;3792;47.740;7.606;2023-07-31T01:59:02;15.70;99.90
7502;DHT22;3792;47.740;7.606;2023-07-31T02:01:29;15.70;99.90
7502;DHT22;3792;47.740;7.606;2023-07-31T02:03:56;15.60;99.90
7502;DHT22;3792;47.740;7.606;2023-07-31T02:06:23;15.60;99.90
7502;DHT22;3792;47.740;7.606;2023-07-31T02:08:50;15.60;99.90
7502;DHT22;3792;47.740;7.606;2023-07-31T02:11:18;15.60;99.90
7502;DHT22;3792;47.740;7.606;2023-07-31T02:13:45;15.60;99.90
7502;DHT22;3792;47.740;7.606;2023-07-31T02:16:13;15.50;99.90
7502;DHT22;3792;47.740;7.606;2023-07-31T02:18:40;15.40;99.90
7502;DHT22;3792;47.740;7.606;2023-07-31T02:21:07;15.40;99.90
7502;DHT22;3792;47.740;7.606;2023-07-31T02:23:33;15.40;99.90
7502;DHT22;3792;47.740;7.606;2023-07-31T02:26:00;15.30;99.90
7502;DHT22;3792;47.740;7.606;2023-07-31T02:28:28;15.30;99.90
7502;DHT22;3792;47.740;7.606;2023-07-31T02:30:55;15.30;99.90
7502;DHT22;3792;47.740;7.606;2023-07-31T02:33:23;15.30;99.90
7502;DHT22;3792;47.740;7.606;2023-07-31T02:35:50;15.30;99.90
7502;DHT22;3792;47.740;7.606;2023-07-31T02:38:17;15.20;99.90
7502;DHT22;3792;47.740;7.606;2023-07-31T02:40:44;15.20;99.90
7502;DHT22;3792;47.740;7.606;2023-07-31T02:43:12;15.20;99.90
7502;DHT22;3792;47.740;7.606;2023-07-31T02:45:39;15.30;99.90
7502;DHT22;3792;47.740;7.606;2023-07-31T02:48:06;15.30;99.90
7502;DHT22;3792;47.740;7.606;2023-07-31T02:50:34;15.30;99.90
7502;DHT22;3792;47.740;7.606;2023-07-31T02:53:01;15.30;99.90
7502;DHT22;3792;47.740;7.606;2023-07-31T02:55:28;15.30;99.90
7502;DHT22;3792;47.740;7.606;2023-07-31T02:57:55;15.40;99.90
7502;DHT22;3792;47.740;7.606;2023-07-31T03:00:23;15.40;99.90
7502;DHT22;3792;47.740;7.606;2023-07-31T03:02:50;15.40;99.90
7502;DHT22;3792;47.740;7.606;2023-07-31T03:05:17;15.40;99.90
7502;DHT22;3792;47.740;7.606;2023-07-31T03:07:46;15.40;99.90
7502;DHT22;3792;47.740;7.606;2023-07-31T03:10:13;15.40;99.90
7502;DHT22;3792;47.740;7.606;2023-07-31T03:12:40;15.40;99.90
7502;DHT22;3792;47.740;7.606;2023-07-31T03:15:08;15.30;99.90
7502;DHT22;3792;47.740;7.606;2023-07-31T03:17:35;15.30;99.90
7502;DHT22;3792;47.740;7.606;2023-07-31T03:20:03;15.30;99.90
7502;DHT22;3792;47.740;7.606;2023-07-31T03:22:31;15.30;99.90
7502;DHT22;3792;47.740;7.606;2023-07-31T03:24:59;15.40;99.90
7502;DHT22;3792;47.740;7.606;2023-07-31T03:27:26;15.40;99.90
7502;DHT22;3792;47.740;7.606;2023-07-31T03:29:53;15.40;99.90
7502;DHT22;3792;47.740;7.606;2023-07-31T03:32:20;15.30;99.90
7502;DHT22;3792;47.740;7.606;2023-07-31T03:34:48;15.30;99.90
7502;DHT22;3792;47.740;7.606;2023-07-31T03:37:15;15.30;99.90
7502;DHT22;3792;47.740;7.606;2023-07-31T03:39:42;15.20;99.90
7502;DHT22;3792;47.740;7.606;2023-07-31T03:42:10;15.10;99.90
7502;DHT22;3792;47.740;7.606;2023-07-31T03:44:37;15.20;99.90
7502;DHT22;3792;47.740;7.606;2023-07-31T03:47:05;15.10;99.90
7502;DHT22;3792;47.740;7.606;2023-07-31T03:49:32;15.10;99.90
7502;DHT22;3792;47.740;7.606;2023-07-31T03:51:59;15.10;99.90
7502;DHT22;3792;47.740;7.606;2023-07-31T03:54:26;15.10;99.90
7502;DHT22;3792;47.740;7.606;2023-07-31T03:56:53;15.00;99.90
7502;DHT22;3792;47.740;7.606;2023-07-31T03:59:21;15.00;99.90
7502;DHT22;3792;47.740;7.606;2023-07-31T04:01:48;15.00;99.90
7502;DHT22;3792;47.740;7.606;2023-07-31T04:04:15;15.00;99.90
7502;DHT22;3792;47.740;7.606;2023-07-31T04:06:42;15.10;99.90
7502;DHT22;3792;47.740;7.606;2023-07-31T04:09:09;15.10;99.90
7502;DHT22;3792;47.740;7.606;2023-07-31T04:11:36;15.10;99.90
7502;DHT22;3792;47.740;7.606;2023-07-31T04:14:04;15.10;99.90
7502;DHT22;3792;47.740;7.606;2023-07-31T04:16:33;15.10;99.90
7502;DHT22;3792;47.740;7.606;2023-07-31T04:19:00;15.10;99.90
7502;DHT22;3792;47.740;7.606;2023-07-31T04:21:28;15.20;99.90
7502;DHT22;3792;47.740;7.606;2023-07-31T04:23:55;15.20;99.90
7502;DHT22;3792;47.740;7.606;2023-07-31T04:26:24;15.10;99.90
7502;DHT22;3792;47.740;7.606;2023-07-31T04:28:51;15.10;99.90
7502;DHT22;3792;47.740;7.606;2023-07-31T04:31:18;15.20;99.90
7502;DHT22;3792;47.740;7.606;2023-07-31T04:33:46;15.30;99.90
7502;DHT22;3792;47.740;7.606;2023-07-31T04:36:13;15.30;99.90
7502;DHT22;3792;47.740;7.606;2023-07-31T04:38:40;15.40;99.90
7502;DHT22;3792;47.740;7.606;2023-07-31T04:41:07;15.30;99.90
7502;DHT22;3792;47.740;7.606;2023-07-31T04:43:34;15.20;99.90
7502;DHT22;3792;47.740;7.606;2023-07-31T04:46:04;15.20;99.90
7502;DHT22;3792;47.740;7.606;2023-07-31T04:48:31;15.30;99.90
7502;DHT22;3792;47.740;7.606;2023-07-31T04:51:00;15.40;99.90
7502;DHT22;3792;47.740;7.606;2023-07-31T04:53:27;15.40;99.90
7502;DHT22;3792;47.740;7.606;2023-07-31T04:55:54;15.40;99.90
7502;DHT22;3792;47.740;7.606;2023-07-31T04:58:21;15.40;99.90
7502;DHT22;3792;47.740;7.606;2023-07-31T05:00:48;15.40;99.90
7502;DHT22;3792;47.740;7.606;2023-07-31T05:03:15;15.50;99.90
7502;DHT22;3792;47.740;7.606;2023-07-31T05:05:42;15.60;99.90
7502;DHT22;3792;47.740;7.606;2023-07-31T05:08:11;15.70;99.90
7502;DHT22;3792;47.740;7.606;2023-07-31T05:10:38;15.80;99.90
7502;DHT22;3792;47.740;7.606;2023-07-31T05:13:05;15.80;99.90
7502;DHT22;3792;47.740;7.606;2023-07-31T05:15:32;15.80;99.90
7502;DHT22;3792;47.740;7.606;2023-07-31T05:17:59;15.80;99.90
7502;DHT22;3792;47.740;7.606;2023-07-31T05:20:26;15.90;99.90
7502;DHT22;3792;47.740;7.606;2023-07-31T05:22:53;16.00;99.90
7502;DHT22;3792;47.740;7.606;2023-07-31T05:25:21;16.00;99.90
7502;DHT22;3792;47.740;7.606;2023-07-31T05:27:49;15.90;99.90
7502;DHT22;3792;47.740;7.606;2023-07-31T05:30:16;15.90;99.90
7502;DHT22;3792;47.740;7.606;2023-07-31T05:32:43;15.90;99.90
7502;DHT22;3792;47.740;7.606;2023-07-31T05:35:10;15.90;99.90
7502;DHT22;3792;47.740;7.606;2023-07-31T05:37:37;16.00;99.90
7502;DHT22;3792;47.740;7.606;2023-07-31T05:40:05;16.00;99.90
7502;DHT22;3792;47.740;7.606;2023-07-31T05:42:34;16.10;99.90
7502;DHT22;3792;47.740;7.606;2023-07-31T05:45:05;16.10;99.90
7502;DHT22;3792;47.740;7.606;2023-07-31T05:47:32;16.20;99.90
7502;DHT22;3792;47.740;7.606;2023-07-31T05:49:59;16.20;99.90
7502;DHT22;3792;47.740;7.606;2023-07-31T05:52:26;16.30;99.90
7502;DHT22;3792;47.740;7.606;2023-07-31T05:54:54;16.30;99.90
7502;DHT22;3792;47.740;7.606;2023-07-31T05:57:21;16.40;99.90
7502;DHT22;3792;47.740;7.606;2023-07-31T05:59:50;16.40;99.90
7502;DHT22;3792;47.740;7.606;2023-07-31T06:02:18;16.50;99.90
7502;DHT22;3792;47.740;7.606;2023-07-31T06:04:45;16.60;99.90
7502;DHT22;3792;47.740;7.606;2023-07-31T06:07:12;16.70;99.90
7502;DHT22;3792;47.740;7.606;2023-07-31T06:09:39;16.70;99.90
7502;DHT22;3792;47.740;7.606;2023-07-31T06:12:07;16.80;99.90
7502;DHT22;3792;47.740;7.606;2023-07-31T06:14:34;16.90;99.90
7502;DHT22;3792;47.740;7.606;2023-07-31T06:17:03;16.90;99.90
7502;DHT22;3792;47.740;7.606;2023-07-31T06:19:30;16.90;99.90
7502;DHT22;3792;47.740;7.606;2023-07-31T06:21:57;17.00;99.90
7502;DHT22;3792;47.740;7.606;2023-07-31T06:24:24;17.10;99.90
7502;DHT22;3792;47.740;7.606;2023-07-31T06:26:51;17.20;99.90
7502;DHT22;3792;47.740;7.606;2023-07-31T06:29:18;17.20;99.90
7502;DHT22;3792;47.740;7.606;2023-07-31T06:31:45;17.30;99.90
7502;DHT22;3792;47.740;7.606;2023-07-31T06:34:13;17.30;99.90
7502;DHT22;3792;47.740;7.606;2023-07-31T06:36:40;17.30;99.90
7502;DHT22;3792;47.740;7.606;2023-07-31T06:39:07;17.40;99.90
7502;DHT22;3792;47.740;7.606;2023-07-31T06:41:34;17.40;99.90
7502;DHT22;3792;47.740;7.606;2023-07-31T06:44:01;17.40;99.90
7502;DHT22;3792;47.740;7.606;2023-07-31T06:46:28;17.50;99.90
7502;DHT22;3792;47.740;7.606;2023-07-31T06:48:55;17.70;99.90
7502;DHT22;3792;47.740;7.606;2023-07-31T06:51:24;17.80;99.90
7502;DHT22;3792;47.740;7.606;2023-07-31T06:53:51;17.90;99.90
7502;DHT22;3792;47.740;7.606;2023-07-31T06:56:18;18.00;99.90
7502;DHT22;3792;47.740;7.606;2023-07-31T06:58:45;18.30;99.90
7502;DHT22;3792;47.740;7.606;2023-07-31T07:01:12;18.60;99.90
7502;DHT22;3792;47.740;7.606;2023-07-31T07:03:39;18.60;99.90
7502;DHT22;3792;47.740;7.606;2023-07-31T07:06:06;18.80;99.90
7502;DHT22;3792;47.740;7.606;2023-07-31T07:08:35;19.10;99.90
7502;DHT22;3792;47.740;7.606;2023-07-31T07:11:02;19.20;99.90
7502;DHT22;3792;47.740;7.606;2023-07-31T07:13:29;19.30;99.90
7502;DHT22;3792;47.740;7.606;2023-07-31T07:15:56;19.30;99.90
7502;DHT22;3792;47.740;7.606;2023-07-31T07:18:23;19.40;99.90
7502;DHT22;3792;47.740;7.606;2023-07-31T07:20:51;19.30;99.90
7502;DHT22;3792;47.740;7.606;2023-07-31T07:23:19;19.40;99.90
7502;DHT22;3792;47.740;7.606;2023-07-31T07:25:47;19.50;99.90
7502;DHT22;3792;47.740;7.606;2023-07-31T07:28:15;19.60;99.90
7502;DHT22;3792;47.740;7.606;2023-07-31T07:30:42;19.70;99.90
7502;DHT22;3792;47.740;7.606;2023-07-31T07:33:09;19.80;99.90
7502;DHT22;3792;47.740;7.606;2023-07-31T07:35:36;19.90;99.90
7502;DHT22;3792;47.740;7.606;2023-07-31T07:38:03;19.70;99.90
7502;DHT22;3792;47.740;7.606;2023-07-31T07:40:30;19.70;99.90
7502;DHT22;3792;47.740;7.606;2023-07-31T07:42:59;19.80;99.90
7502;DHT22;3792;47.740;7.606;2023-07-31T07:45:26;19.90;99.90
7502;DHT22;3792;47.740;7.606;2023-07-31T07:47:53;20.20;99.90
7502;DHT22;3792;47.740;7.606;2023-07-31T07:50:20;20.40;99.90
7502;DHT22;3792;47.740;7.606;2023-07-31T07:52:47;20.30;99.90
7502;DHT22;3792;47.740;7.606;2023-07-31T07:55:14;20.20;99.90
7502;DHT22;3792;47.740;7.606;2023-07-31T07:57:41;20.20;99.90
7502;DHT22;3792;47.740;7.606;2023-07-31T08:00:12;20.20;99.90
7502;DHT22;3792;47.740;7.606;2023-07-31T08:02:39;20.30;99.90
7502;DHT22;3792;47.740;7.606;2023-07-31T08:05:07;20.30;99.90
7502;DHT22;3792;47.740;7.606;2023-07-31T08:07:34;20.50;99.90
7502;DHT22;3792;47.740;7.606;2023-07-31T08:10:01;20.60;99.90
7502;DHT22;3792;47.740;7.606;2023-07-31T08:12:28;20.90;99.90
7502;DHT22;3792;47.740;7.606;2023-07-31T08:14:55;20.90;99.90
7502;DHT22;3792;47.740;7.606;2023-07-31T08:17:24;20.90;99.90
7502;DHT22;3792;47.740;7.606;2023-07-31T08:19:51;20.80;99.90
7502;DHT22;3792;47.740;7.606;2023-07-31T08:22:18;20.90;99.90
7502;DHT22;3792;47.740;7.606;2023-07-31T08:24:45;20.90;99.90
7502;DHT22;3792;47.740;7.606;2023-07-31T08:27:12;21.00;99.90
7502;DHT22;3792;47.740;7.606;2023-07-31T08:29:39;21.10;99.90
7502;DHT22;3792;47.740;7.606;2023-07-31T08:32:06;21.30;99.90
7502;DHT22;3792;47.740;7.606;2023-07-31T08:34:35;21.50;99.90
7502;DHT22;3792;47.740;7.606;2023-07-31T08:37:02;21.70;99.90
7502;DHT22;3792;47.740;7.606;2023-07-31T08:39:29;21.70;99.90
7502;DHT22;3792;47.740;7.606;2023-07-31T08:41:58;21.70;99.90
7502;DHT22;3792;47.740;7.606;2023-07-31T08:44:26;21.70;99.90
7502;DHT22;3792;47.740;7.606;2023-07-31T08:46:53;21.70;99.90
7502;DHT22;3792;47.740;7.606;2023-07-31T08:49:22;21.50;99.90
7502;DHT22;3792;47.740;7.606;2023-07-31T08:51:52;21.70;99.90
7502;DHT22;3792;47.740;7.606;2023-07-31T08:54:20;21.90;99.90
7502;DHT22;3792;47.740;7.606;2023-07-31T08:56:48;21.80;99.90
7502;DHT22;3792;47.740;7.606;2023-07-31T08:59:17;21.90;99.90
7502;DHT22;3792;47.740;7.606;2023-07-31T09:01:49;21.90;99.90
7502;DHT22;3792;47.740;7.606;2023-07-31T09:04:19;21.90;99.90
7502;DHT22;3792;47.740;7.606;2023-07-31T09:06:47;22.00;99.90
7502;DHT22;3792;47.740;7.606;2023-07-31T09:09:16;22.00;99.90
7502;DHT22;3792;47.740;7.606;2023-07-31T09:11:45;22.10;99.90
7502;DHT22;3792;47.740;7.606;2023-07-31T09:14:13;22.20;99.90
7502;DHT22;3792;47.740;7.606;2023-07-31T09:16:52;22.40;99.90
7502;DHT22;3792;47.740;7.606;2023-07-31T09:19:25;22.40;99.90
7502;DHT22;3792;47.740;7.606;2023-07-31T09:21:53;22.20;99.90
7502;DHT22;3792;47.740;7.606;2023-07-31T09:24:29;22.10;99.90
7502;DHT22;3792;47.740;7.606;2023-07-31T09:26:57;21.90;99.90
7502;DHT22;3792;47.740;7.606;2023-07-31T09:29:25;21.90;99.90
7502;DHT22;3792;47.740;7.606;2023-07-31T09:31:53;22.00;99.90
7502;DHT22;3792;47.740;7.606;2023-07-31T09:34:29;22.20;99.90
7502;DHT22;3792;47.740;7.606;2023-07-31T09:37:00;22.30;99.90
7502;DHT22;3792;47.740;7.606;2023-07-31T09:39:29;22.20;99.90
7502;DHT22;3792;47.740;7.606;2023-07-31T09:41:57;22.10;99.90
7502;DHT22;3792;47.740;7.606;2023-07-31T09:44:37;22.00;99.90
7502;DHT22;3792;47.740;7.606;2023-07-31T09:47:05;21.90;99.90
7502;DHT22;3792;47.740;7.606;2023-07-31T09:49:32;21.90;99.90
7502;DHT22;3792;47.740;7.606;2023-07-31T09:51:59;22.10;99.90
7502;DHT22;3792;47.740;7.606;2023-07-31T09:54:26;22.30;99.90
7502;DHT22;3792;47.740;7.606;2023-07-31T09:56:56;22.20;99.90
7502;DHT22;3792;47.740;7.606;2023-07-31T09:59:23;22.00;99.90
7502;DHT22;3792;47.740;7.606;2023-07-31T10:01:52;21.90;99.90
7502;DHT22;3792;47.740;7.606;2023-07-31T10:04:21;21.90;99.90
7502;DHT22;3792;47.740;7.606;2023-07-31T10:06:53;22.00;99.90
7502;DHT22;3792;47.740;7.606;2023-07-31T10:09:21;22.10;99.90
7502;DHT22;3792;47.740;7.606;2023-07-31T10:11:55;22.20;99.90
7502;DHT22;3792;47.740;7.606;2023-07-31T10:14:24;22.30;99.90
7502;DHT22;3792;47.740;7.606;2023-07-31T10:16:52;22.50;99.90
7502;DHT22;3792;47.740;7.606;2023-07-31T10:19:21;22.60;99.90
7502;DHT22;3792;47.740;7.606;2023-07-31T10:21:49;22.60;99.90
7502;DHT22;3792;47.740;7.606;2023-07-31T10:24:16;22.50;99.90
7502;DHT22;3792;47.740;7.606;2023-07-31T10:26:45;22.60;99.90
7502;DHT22;3792;47.740;7.606;2023-07-31T10:29:16;22.60;99.90
7502;DHT22;3792;47.740;7.606;2023-07-31T10:31:44;22.70;99.90
7502;DHT22;3792;47.740;7.606;2023-07-31T10:34:11;23.10;99.90
7502;DHT22;3792;47.740;7.606;2023-07-31T10:36:38;23.50;99.90
7502;DHT22;3792;47.740;7.606;2023-07-31T10:39:34;23.80;99.90
7502;DHT22;3792;47.740;7.606;2023-07-31T10:42:10;24.10;99.90
7502;DHT22;3792;47.740;7.606;2023-07-31T10:44:43;24.30;99.30
7502;DHT22;3792;47.740;7.606;2023-07-31T10:47:14;24.30;99.30
7502;DHT22;3792;47.740;7.606;2023-07-31T10:49:45;24.40;99.30
7502;DHT22;3792;47.740;7.606;2023-07-31T10:52:13;24.50;98.60
7502;DHT22;3792;47.740;7.606;2023-07-31T10:54:40;24.40;99.00
7502;DHT22;3792;47.740;7.606;2023-07-31T10:57:19;24.40;99.00
7502;DHT22;3792;47.740;7.606;2023-07-31T10:59:48;24.30;98.60
7502;DHT22;3792;47.740;7.606;2023-07-31T11:02:25;24.20;98.50
7502;DHT22;3792;47.740;7.606;2023-07-31T11:05:07;24.10;98.70
7502;DHT22;3792;47.740;7.606;2023-07-31T11:07:49;24.10;99.00
7502;DHT22;3792;47.740;7.606;2023-07-31T11:10:17;24.10;98.20
7502;DHT22;3792;47.740;7.606;2023-07-31T11:12:45;24.30;98.30
7502;DHT22;3792;47.740;7.606;2023-07-31T11:15:14;24.50;98.60
7502;DHT22;3792;47.740;7.606;2023-07-31T11:17:41;24.50;98.30
7502;DHT22;3792;47.740;7.606;2023-07-31T11:20:09;24.40;97.80
7502;DHT22;3792;47.740;7.606;2023-07-31T11:22:36;24.30;98.20
7502;DHT22;3792;47.740;7.606;2023-07-31T11:25:04;24.10;98.30
7502;DHT22;3792;47.740;7.606;2023-07-31T11:27:31;24.00;98.60
7502;DHT22;3792;47.740;7.606;2023-07-31T11:30:06;24.20;99.10
7502;DHT22;3792;47.740;7.606;2023-07-31T11:32:36;24.40;98.60
7502;DHT22;3792;47.740;7.606;2023-07-31T11:35:04;24.50;98.40
7502;DHT22;3792;47.740;7.606;2023-07-31T11:37:40;24.60;97.50
7502;DHT22;3792;47.740;7.606;2023-07-31T11:40:08;24.50;97.60
7502;DHT22;3792;47.740;7.606;2023-07-31T11:42:37;24.60;97.40
7502;DHT22;3792;47.740;7.606;2023-07-31T11:45:04;24.90;97.40
7502;DHT22;3792;47.740;7.606;2023-07-31T11:47:34;25.20;97.30
7502;DHT22;3792;47.740;7.606;2023-07-31T11:50:02;25.20;96.90
7502;DHT22;3792;47.740;7.606;2023-07-31T11:52:31;25.00;96.60
7502;DHT22;3792;47.740;7.606;2023-07-31T11:54:59;25.10;97.00
7502;DHT22;3792;47.740;7.606;2023-07-31T11:57:26;25.20;97.30
7502;DHT22;3792;47.740;7.606;2023-07-31T11:59:55;25.20;97.00
7502;DHT22;3792;47.740;7.606;2023-07-31T12:02:22;25.00;96.90
7502;DHT22;3792;47.740;7.606;2023-07-31T12:04:51;25.00;97.30
7502;DHT22;3792;47.740;7.606;2023-07-31T12:07:18;25.20;96.90
7502;DHT22;3792;47.740;7.606;2023-07-31T12:09:52;25.50;96.90
7502;DHT22;3792;47.740;7.606;2023-07-31T12:12:23;25.50;96.90
7502;DHT22;3792;47.740;7.606;2023-07-31T12:14:50;25.70;96.80
7502;DHT22;3792;47.740;7.606;2023-07-31T12:17:19;25.60;96.50
7502;DHT22;3792;47.740;7.606;2023-07-31T12:19:48;25.40;96.40
7502;DHT22;3792;47.740;7.606;2023-07-31T12:22:17;25.40;96.50
7502;DHT22;3792;47.740;7.606;2023-07-31T12:24:44;25.60;96.50
7502;DHT22;3792;47.740;7.606;2023-07-31T12:27:12;25.60;95.90
7502;DHT22;3792;47.740;7.606;2023-07-31T12:29:41;25.90;95.90
7502;DHT22;3792;47.740;7.606;2023-07-31T12:32:21;26.20;95.20
7502;DHT22;3792;47.740;7.606;2023-07-31T12:34:49;26.30;95.70
7502;DHT22;3792;47.740;7.606;2023-07-31T12:37:18;26.60;95.50
7502;DHT22;3792;47.740;7.606;2023-07-31T12:39:45;26.70;95.90
7502;DHT22;3792;47.740;7.606;2023-07-31T12:42:12;26.80;95.80
7502;DHT22;3792;47.740;7.606;2023-07-31T12:44:39;27.20;94.90
7502;DHT22;3792;47.740;7.606;2023-07-31T12:47:06;27.40;94.00
7502;DHT22;3792;47.740;7.606;2023-07-31T12:49:33;27.60;94.30
7502;DHT22;3792;47.740;7.606;2023-07-31T12:52:00;27.50;93.10
7502;DHT22;3792;47.740;7.606;2023-07-31T12:54:29;27.30;93.40
7502;DHT22;3792;47.740;7.606;2023-07-31T12:56:56;27.40;94.20
7502;DHT22;3792;47.740;7.606;2023-07-31T12:59:23;27.30;93.70
7502;DHT22;3792;47.740;7.606;2023-07-31T13:01:50;27.30;94.10
7502;DHT22;3792;47.740;7.606;2023-07-31T13:04:17;27.00;93.50
7502;DHT22;3792;47.740;7.606;2023-07-31T13:06:44;27.00;94.20
7502;DHT22;3792;47.740;7.606;2023-07-31T13:09:11;27.20;93.30
7502;DHT22;3792;47.740;7.606;2023-07-31T13:11:39;27.40;93.20
7502;DHT22;3792;47.740;7.606;2023-07-31T13:14:06;27.40;93.70
7502;DHT22;3792;47.740;7.606;2023-07-31T13:16:33;27.40;93.20
7502;DHT22;3792;47.740;7.606;2023-07-31T13:19:00;27.30;93.20
7502;DHT22;3792;47.740;7.606;2023-07-31T13:21:27;27.10;93.70
7502;DHT22;3792;47.740;7.606;2023-07-31T13:23:54;27.00;94.30
7502;DHT22;3792;47.740;7.606;2023-07-31T13:26:23;26.80;93.60
7502;DHT22;3792;47.740;7.606;2023-07-31T13:28:52;26.70;93.20
7502;DHT22;3792;47.740;7.606;2023-07-31T13:31:19;26.60;93.00
7502;DHT22;3792;47.740;7.606;2023-07-31T13:33:46;26.60;92.90
7502;DHT22;3792;47.740;7.606;2023-07-31T13:36:13;26.60;92.20
7502;DHT22;3792;47.740;7.606;2023-07-31T13:38:40;26.60;92.30
7502;DHT22;3792;47.740;7.606;2023-07-31T13:41:07;26.50;92.60
7502;DHT22;3792;47.740;7.606;2023-07-31T13:43:34;26.30;92.50
7502;DHT22;3792;47.740;7.606;2023-07-31T13:46:03;26.30;93.40
7502;DHT22;3792;47.740;7.606;2023-07-31T13:48:33;26.20;92.20
7502;DHT22;3792;47.740;7.606;2023-07-31T13:51:00;26.00;92.60
7502;DHT22;3792;47.740;7.606;2023-07-31T13:53:27;25.90;92.90
7502;DHT22;3792;47.740;7.606;2023-07-31T13:55:54;25.80;93.10
7502;DHT22;3792;47.740;7.606;2023-07-31T13:58:21;25.90;93.20
7502;DHT22;3792;47.740;7.606;2023-07-31T14:00:48;26.00;93.50
7502;DHT22;3792;47.740;7.606;2023-07-31T14:03:17;26.00;93.50
7502;DHT22;3792;47.740;7.606;2023-07-31T14:05:44;26.10;93.70
7502;DHT22;3792;47.740;7.606;2023-07-31T14:08:11;26.00;93.60
7502;DHT22;3792;47.740;7.606;2023-07-31T14:10:38;26.00;93.30
7502;DHT22;3792;47.740;7.606;2023-07-31T14:13:05;26.10;93.30
7502;DHT22;3792;47.740;7.606;2023-07-31T14:15:32;26.00;93.00
7502;DHT22;3792;47.740;7.606;2023-07-31T14:18:01;25.90;92.00
7502;DHT22;3792;47.740;7.606;2023-07-31T14:20:30;25.80;92.20
7502;DHT22;3792;47.740;7.606;2023-07-31T14:22:57;25.80;92.60
7502;DHT22;3792;47.740;7.606;2023-07-31T14:25:24;25.90;92.90
7502;DHT22;3792;47.740;7.606;2023-07-31T14:27:51;26.00;93.50
7502;DHT22;3792;47.740;7.606;2023-07-31T14:30:18;26.00;93.40
7502;DHT22;3792;47.740;7.606;2023-07-31T14:32:46;25.90;93.80
7502;DHT22;3792;47.740;7.606;2023-07-31T14:35:13;25.80;93.00
7502;DHT22;3792;47.740;7.606;2023-07-31T14:37:42;25.70;93.40
7502;DHT22;3792;47.740;7.606;2023-07-31T14:40:11;25.70;93.90
7502;DHT22;3792;47.740;7.606;2023-07-31T14:42:39;25.70;94.00
7502;DHT22;3792;47.740;7.606;2023-07-31T14:45:07;25.60;94.00
7502;DHT22;3792;47.740;7.606;2023-07-31T14:47:35;25.60;94.20
7502;DHT22;3792;47.740;7.606;2023-07-31T14:50:03;25.50;94.00
7502;DHT22;3792;47.740;7.606;2023-07-31T14:52:30;25.50;94.00
7502;DHT22;3792;47.740;7.606;2023-07-31T14:54:58;25.40;94.30
7502;DHT22;3792;47.740;7.606;2023-07-31T14:57:25;25.40;94.50
7502;DHT22;3792;47.740;7.606;2023-07-31T14:59:52;25.40;95.00
7502;DHT22;3792;47.740;7.606;2023-07-31T15:02:19;25.30;95.10
7502;DHT22;3792;47.740;7.606;2023-07-31T15:04:46;25.20;95.50
7502;DHT22;3792;47.740;7.606;2023-07-31T15:07:14;25.10;95.00
7502;DHT22;3792;47.740;7.606;2023-07-31T15:09:41;24.90;95.50
7502;DHT22;3792;47.740;7.606;2023-07-31T15:12:09;24.80;95.60
7502;DHT22;3792;47.740;7.606;2023-07-31T15:14:36;24.80;95.60
7502;DHT22;3792;47.740;7.606;2023-07-31T15:17:04;24.70;95.90
7502;DHT22;3792;47.740;7.606;2023-07-31T15:19:31;24.70;96.00
7502;DHT22;3792;47.740;7.606;2023-07-31T15:22:00;24.60;96.00
7502;DHT22;3792;47.740;7.606;2023-07-31T15:24:27;24.50;96.30
7502;DHT22;3792;47.740;7.606;2023-07-31T15:26:54;24.40;96.10
7502;DHT22;3792;47.740;7.606;2023-07-31T15:29:23;24.40;96.40
7502;DHT22;3792;47.740;7.606;2023-07-31T15:31:50;24.40;96.80
7502;DHT22;3792;47.740;7.606;2023-07-31T15:34:17;24.40;96.70
7502;DHT22;3792;47.740;7.606;2023-07-31T15:36:44;24.40;97.00
7502;DHT22;3792;47.740;7.606;2023-07-31T15:39:11;24.30;97.50
7502;DHT22;3792;47.740;7.606;2023-07-31T15:41:39;24.30;97.80
7502;DHT22;3792;47.740;7.606;2023-07-31T15:44:07;24.20;98.10
7502;DHT22;3792;47.740;7.606;2023-07-31T15:46:35;24.20;97.60
7502;DHT22;3792;47.740;7.606;2023-07-31T15:49:02;24.10;97.60
7502;DHT22;3792;47.740;7.606;2023-07-31T15:51:30;24.10;98.00
7502;DHT22;3792;47.740;7.606;2023-07-31T15:53:57;24.20;99.00
7502;DHT22;3792;47.740;7.606;2023-07-31T15:56:24;24.20;98.90
7502;DHT22;3792;47.740;7.606;2023-07-31T15:58:51;24.20;99.90
7502;DHT22;3792;47.740;7.606;2023-07-31T16:01:22;24.20;99.90
7502;DHT22;3792;47.740;7.606;2023-07-31T16:03:50;24.20;99.90
7502;DHT22;3792;47.740;7.606;2023-07-31T16:06:18;24.20;99.90
7502;DHT22;3792;47.740;7.606;2023-07-31T16:08:45;24.20;99.90